Terminal Aerodrome Forecast
Issued by NWS Quad Cities IA IL

Home | Current Version | Previous Version | Text Only | Print | Product List | Glossary On
Versions: 1 2 3 4 5 6 7 8 9 10 11 12 13 14 15 16 17 18 19 20 21 22 23
000
FTUS43 KDVN 261400 AAB
TAFDBQ
TAF AMD
KDBQ 261402Z 2614/2712 36008KT P6SM VCSH SCT040 BKN120
     FM261800 01005KT P6SM SCT200
      TEMPO 2708/2712 4SM TSRA BKN035CB=

USA.gov is the U.S. government's official web portal to all federal, state and local government web resources and services.